createdAt,value
2019-05-19T00:02:10.652Z,8.17
2019-05-19T00:04:36.966Z,4.00
2019-05-19T00:07:03.395Z,4.60
2019-05-19T00:09:29.862Z,6.00
2019-05-19T00:11:56.218Z,4.87
2019-05-19T00:14:22.772Z,4.93
2019-05-19T00:16:49.141Z,3.70
2019-05-19T00:19:26.255Z,9.07
2019-05-19T00:21:43.653Z,3.27
2019-05-19T00:24:10.253Z,5.93
2019-05-19T00:26:36.523Z,2.90
2019-05-19T00:29:03.015Z,3.47
2019-05-19T00:31:29.476Z,4.07
2019-05-19T00:33:55.940Z,9.73
2019-05-19T00:36:22.351Z,5.27
2019-05-19T00:38:48.722Z,6.60
2019-05-19T00:41:15.225Z,9.90
2019-05-19T00:43:41.627Z,4.37
2019-05-19T00:46:08.266Z,5.07
2019-05-19T00:48:34.820Z,3.60
2019-05-19T00:51:01.186Z,6.17
2019-05-19T00:53:27.677Z,3.20
2019-05-19T00:55:54.447Z,5.23
2019-05-19T00:58:21.679Z,3.27
2019-05-19T01:00:48.036Z,5.90
2019-05-19T01:03:14.449Z,4.37
2019-05-19T01:05:40.885Z,3.33
2019-05-19T01:08:07.425Z,6.50
2019-05-19T01:10:33.915Z,4.07
2019-05-19T01:13:00.373Z,5.17
2019-05-19T01:15:26.742Z,3.90
2019-05-19T01:17:53.099Z,6.30
2019-05-19T01:20:19.593Z,3.00
2019-05-19T01:22:46.087Z,3.57
2019-05-19T01:25:12.757Z,2.60
2019-05-19T01:27:39.358Z,3.87
2019-05-19T01:30:07.965Z,5.37
2019-05-19T01:32:34.337Z,2.27
2019-05-19T01:35:01.592Z,2.20
2019-05-19T01:37:27.845Z,4.73
2019-05-19T01:39:54.241Z,8.03
2019-05-19T01:42:20.618Z,4.17
2019-05-19T01:44:47.095Z,5.10
2019-05-19T01:47:13.679Z,5.43
2019-05-19T01:49:40.132Z,8.10
2019-05-19T01:52:06.714Z,4.07
2019-05-19T01:54:33.107Z,7.13
2019-05-19T01:56:59.390Z,7.70
2019-05-19T01:59:26.002Z,3.00
2019-05-19T02:01:52.381Z,3.87
2019-05-19T02:04:18.862Z,5.07
2019-05-19T02:06:45.219Z,7.03
2019-05-19T02:09:11.701Z,6.73
2019-05-19T02:11:38.197Z,4.33
2019-05-19T02:14:04.902Z,2.77
2019-05-19T02:16:31.377Z,3.33
2019-05-19T02:18:57.656Z,5.43
2019-05-19T02:21:24.013Z,4.13
2019-05-19T02:23:50.601Z,5.53
2019-05-19T02:26:17.108Z,2.63
2019-05-19T02:28:43.569Z,5.10
2019-05-19T02:31:10.055Z,3.97
2019-05-19T02:33:36.651Z,4.33
2019-05-19T02:36:03.154Z,3.40
2019-05-19T02:38:29.527Z,5.17
2019-05-19T02:40:57.796Z,2.40
2019-05-19T02:43:24.674Z,3.50
2019-05-19T02:45:54.735Z,2.30
2019-05-19T02:48:22.459Z,3.67
2019-05-19T02:50:52.671Z,5.60
2019-05-19T02:53:18.792Z,3.87
2019-05-19T02:55:45.565Z,4.20
2019-05-19T02:58:12.144Z,3.47
2019-05-19T03:00:40.440Z,4.23
2019-05-19T03:03:06.912Z,3.23
2019-05-19T03:05:34.116Z,5.03
2019-05-19T03:08:00.381Z,6.70
2019-05-19T03:10:26.769Z,2.57
2019-05-19T03:12:53.234Z,6.77
2019-05-19T03:15:19.613Z,5.43
2019-05-19T03:17:46.098Z,4.03
2019-05-19T03:20:12.649Z,4.90
2019-05-19T03:22:39.021Z,4.17
2019-05-19T03:25:05.410Z,5.57
2019-05-19T03:27:31.767Z,3.60
2019-05-19T03:29:59.936Z,10.70
2019-05-19T03:32:30.841Z,6.30
2019-05-19T03:34:57.202Z,5.17
2019-05-19T03:37:23.573Z,6.33
2019-05-19T03:39:49.937Z,2.87
2019-05-19T03:42:16.318Z,3.10
2019-05-19T03:44:42.823Z,3.97
2019-05-19T03:47:09.238Z,6.43
2019-05-19T03:49:35.649Z,10.30
2019-05-19T03:52:02.073Z,4.90
2019-05-19T03:54:28.466Z,5.43
2019-05-19T03:56:54.996Z,8.33
2019-05-19T03:59:21.229Z,4.77
2019-05-19T04:01:47.739Z,7.00
2019-05-19T04:04:14.007Z,4.70
2019-05-19T04:06:40.388Z,4.93
2019-05-19T04:09:06.937Z,4.37
2019-05-19T04:11:33.402Z,5.80
2019-05-19T04:14:00.005Z,5.17
2019-05-19T04:16:26.383Z,4.70
2019-05-19T04:18:52.762Z,4.17
2019-05-19T04:21:19.148Z,5.63
2019-05-19T04:23:45.520Z,3.47
2019-05-19T04:26:18.381Z,3.50
2019-05-19T04:28:44.653Z,5.20
2019-05-19T04:31:11.131Z,3.63
2019-05-19T04:33:37.540Z,4.13
2019-05-19T04:36:04.012Z,5.83
2019-05-19T04:38:30.465Z,4.43
2019-05-19T04:40:56.978Z,4.63
2019-05-19T04:43:23.351Z,8.53
2019-05-19T04:45:49.775Z,6.40
2019-05-19T04:48:16.128Z,6.63
2019-05-19T04:50:42.621Z,5.87
2019-05-19T04:53:09.095Z,10.87
2019-05-19T04:55:35.460Z,5.37
2019-05-19T04:58:01.850Z,2.70
2019-05-19T05:00:28.213Z,3.00
2019-05-19T05:02:54.507Z,5.67
2019-05-19T05:05:20.978Z,9.30
2019-05-19T05:07:47.374Z,5.70
2019-05-19T05:10:13.814Z,6.07
2019-05-19T05:12:40.400Z,10.20
2019-05-19T05:15:07.114Z,6.13
2019-05-19T05:17:33.524Z,5.97
2019-05-19T05:20:02.724Z,4.97
2019-05-19T05:22:29.218Z,5.37
2019-05-19T05:24:55.718Z,4.37
2019-05-19T05:27:22.046Z,7.53
2019-05-19T05:29:48.425Z,5.93
2019-05-19T05:32:14.693Z,5.67
2019-05-19T05:34:40.961Z,7.80
2019-05-19T05:37:07.433Z,3.97
2019-05-19T05:39:33.831Z,6.50
2019-05-19T05:42:00.156Z,6.93
2019-05-19T05:44:26.415Z,4.63
2019-05-19T05:46:52.905Z,4.70
2019-05-19T05:49:19.367Z,6.43
2019-05-19T05:51:45.867Z,4.57
2019-05-19T05:54:12.360Z,6.60
2019-05-19T05:56:38.815Z,4.43
2019-05-19T05:59:05.386Z,5.50
2019-05-19T06:01:32.007Z,6.43
2019-05-19T06:03:58.363Z,5.03
2019-05-19T06:06:24.941Z,3.93
2019-05-19T06:08:51.465Z,5.20
2019-05-19T06:11:18.197Z,4.27
2019-05-19T06:13:44.773Z,6.10
2019-05-19T06:16:11.204Z,7.43
2019-05-19T06:18:37.845Z,9.30
2019-05-19T06:21:04.211Z,8.90
2019-05-19T06:23:30.564Z,5.93
2019-05-19T06:25:56.958Z,9.60
2019-05-19T06:28:23.550Z,7.37
2019-05-19T06:30:49.924Z,8.00
2019-05-19T06:33:16.503Z,8.87
2019-05-19T06:35:42.873Z,5.77
2019-05-19T06:38:09.254Z,5.90
2019-05-19T06:40:35.528Z,6.00
2019-05-19T06:43:01.923Z,6.43
2019-05-19T06:45:28.379Z,5.93
2019-05-19T06:47:54.658Z,6.87
2019-05-19T06:50:21.175Z,10.30
2019-05-19T06:52:47.665Z,8.27
2019-05-19T06:55:14.349Z,5.70
2019-05-19T06:57:40.702Z,6.30
2019-05-19T07:00:07.693Z,6.27
2019-05-19T07:02:34.149Z,9.27
2019-05-19T07:05:00.631Z,6.37
2019-05-19T07:07:27.010Z,7.80
2019-05-19T07:09:58.432Z,5.43
2019-05-19T07:12:21.413Z,8.97
2019-05-19T07:14:47.769Z,5.40
2019-05-19T07:17:14.280Z,4.53
2019-05-19T07:19:40.727Z,6.20
2019-05-19T07:22:07.217Z,5.73
2019-05-19T07:24:33.699Z,5.67
2019-05-19T07:27:00.078Z,8.60
2019-05-19T07:29:26.377Z,9.30
2019-05-19T07:31:52.861Z,11.50
2019-05-19T07:34:19.343Z,13.63
2019-05-19T07:36:45.708Z,10.37
2019-05-19T07:39:12.065Z,6.97
2019-05-19T07:41:38.553Z,6.73
2019-05-19T07:44:05.049Z,9.53
2019-05-19T07:46:31.411Z,6.40
2019-05-19T07:48:57.679Z,4.97
2019-05-19T07:51:24.285Z,5.43
2019-05-19T07:53:50.907Z,4.17
2019-05-19T07:56:17.462Z,5.57
2019-05-19T07:58:43.939Z,10.37
2019-05-19T08:01:10.529Z,8.37
2019-05-19T08:03:36.996Z,5.30
2019-05-19T08:06:03.576Z,11.00
2019-05-19T08:08:29.995Z,6.03
2019-05-19T08:10:56.385Z,5.40
2019-05-19T08:13:22.758Z,13.67
2019-05-19T08:15:49.102Z,12.13
2019-05-19T08:18:15.533Z,7.27
2019-05-19T08:20:42.185Z,11.87
2019-05-19T08:23:08.423Z,6.77
2019-05-19T08:25:34.896Z,6.60
2019-05-19T08:28:08.295Z,8.10
2019-05-19T08:30:29.747Z,6.43
2019-05-19T08:32:56.243Z,5.20
2019-05-19T08:35:22.752Z,5.40
2019-05-19T08:37:49.163Z,8.47
2019-05-19T08:40:15.563Z,6.57
2019-05-19T08:42:42.162Z,7.20
2019-05-19T08:45:08.677Z,8.17
2019-05-19T08:47:35.172Z,8.17
2019-05-19T08:50:02.464Z,8.50
2019-05-19T08:52:29.054Z,9.40
2019-05-19T08:54:55.517Z,10.83
2019-05-19T08:57:21.951Z,6.97
2019-05-19T08:59:48.373Z,10.37
2019-05-19T09:02:14.830Z,6.97
2019-05-19T09:04:41.725Z,9.70
2019-05-19T09:07:08.242Z,11.60
2019-05-19T09:09:34.746Z,8.70
2019-05-19T09:12:00.994Z,10.23
2019-05-19T09:14:27.638Z,8.87
2019-05-19T09:16:54.013Z,8.87
2019-05-19T09:19:20.414Z,8.10
2019-05-19T09:21:46.978Z,9.70
2019-05-19T09:24:13.343Z,13.93
2019-05-19T09:26:39.717Z,9.53
2019-05-19T09:29:06.355Z,17.10
2019-05-19T09:31:32.755Z,11.43
2019-05-19T09:33:59.249Z,14.53
2019-05-19T09:36:25.829Z,7.30
2019-05-19T09:38:52.365Z,14.17
2019-05-19T09:41:18.972Z,10.23
2019-05-19T09:43:45.430Z,13.60
2019-05-19T09:46:13.975Z,13.10
2019-05-19T09:48:40.335Z,11.60
2019-05-19T09:51:06.734Z,27.90
2019-05-19T09:53:33.226Z,10.57
2019-05-19T09:55:59.581Z,10.53
2019-05-19T09:58:26.133Z,9.20
2019-05-19T10:00:52.531Z,14.83
2019-05-19T10:03:19.777Z,11.97
2019-05-19T10:05:46.319Z,9.53
2019-05-19T10:08:12.786Z,17.83
2019-05-19T10:10:58.335Z,15.77
2019-05-19T10:13:24.717Z,8.73
2019-05-19T10:15:51.148Z,15.87
2019-05-19T10:18:17.642Z,10.67
2019-05-19T10:20:44.133Z,15.23
2019-05-19T10:23:10.673Z,9.73
2019-05-19T10:25:37.170Z,15.57
2019-05-19T10:28:05.488Z,11.30
2019-05-19T10:30:31.942Z,10.30
2019-05-19T10:32:58.897Z,12.20
2019-05-19T10:35:25.309Z,13.07
2019-05-19T10:37:51.756Z,13.10
2019-05-19T10:40:18.336Z,11.53
2019-05-19T10:42:44.727Z,11.93
2019-05-19T10:45:12.022Z,18.60
2019-05-19T10:47:40.398Z,15.17
2019-05-19T10:50:07.736Z,11.27
2019-05-19T10:52:34.306Z,11.23
2019-05-19T10:55:00.581Z,11.40
2019-05-19T10:57:26.960Z,13.73
2019-05-19T10:59:53.359Z,14.23
2019-05-19T11:02:19.726Z,13.33
2019-05-19T11:04:46.172Z,12.20
2019-05-19T11:07:12.652Z,11.23
2019-05-19T11:09:38.998Z,13.67
2019-05-19T11:12:05.526Z,12.30
2019-05-19T11:14:31.914Z,11.93
2019-05-19T11:16:58.297Z,15.77
2019-05-19T11:19:24.849Z,14.87
2019-05-19T11:21:51.325Z,12.43
2019-05-19T11:24:17.842Z,15.77
2019-05-19T11:26:44.231Z,12.27
2019-05-19T11:29:10.989Z,14.20
2019-05-19T11:31:37.364Z,10.43
2019-05-19T11:34:03.885Z,12.47
2019-05-19T11:36:30.224Z,12.53
2019-05-19T11:38:56.483Z,15.13
2019-05-19T11:41:23.151Z,11.17
2019-05-19T11:43:49.671Z,13.37
2019-05-19T11:46:16.165Z,11.80
2019-05-19T11:48:42.556Z,10.63
2019-05-19T11:51:08.955Z,11.40
2019-05-19T11:53:35.384Z,13.77
2019-05-19T11:56:06.755Z,11.20
2019-05-19T11:58:29.954Z,13.80
2019-05-19T12:00:56.460Z,11.63
2019-05-19T12:03:22.993Z,14.83
2019-05-19T12:05:49.500Z,10.97
2019-05-19T12:08:17.078Z,10.53
2019-05-19T12:10:43.452Z,13.07
2019-05-19T12:13:10.060Z,13.37
2019-05-19T12:15:36.553Z,11.07
2019-05-19T12:18:03.078Z,13.70
2019-05-19T12:20:29.511Z,11.43
2019-05-19T12:22:55.854Z,13.13
2019-05-19T12:25:22.303Z,13.87
2019-05-19T12:27:48.663Z,11.17
2019-05-19T12:30:19.394Z,12.90
2019-05-19T12:32:45.828Z,11.53
2019-05-19T12:43:24.419Z,11.10
2019-05-19T12:45:50.895Z,13.53
2019-05-19T12:48:17.433Z,11.80
2019-05-19T12:50:43.906Z,12.80
2019-05-19T12:53:10.216Z,14.47
2019-05-19T12:55:36.676Z,13.23
2019-05-19T12:58:03.285Z,12.43
2019-05-19T13:00:29.850Z,13.43
2019-05-19T13:02:56.266Z,11.83
2019-05-19T13:05:22.801Z,13.17
2019-05-19T13:07:49.277Z,12.37
2019-05-19T13:10:17.921Z,17.13
2019-05-19T13:12:44.336Z,11.60
2019-05-19T13:15:10.828Z,11.87
2019-05-19T13:17:37.330Z,12.43
2019-05-19T13:20:04.264Z,11.67
2019-05-19T13:22:30.750Z,12.43
2019-05-19T13:24:57.250Z,10.53
2019-05-19T13:27:23.706Z,10.57
2019-05-19T13:29:50.053Z,12.87
2019-05-19T13:32:16.330Z,11.83
2019-05-19T13:34:42.807Z,10.70
2019-05-19T13:37:09.264Z,11.57
2019-05-19T13:39:35.742Z,13.07
2019-05-19T13:42:02.348Z,11.53
2019-05-19T13:44:28.749Z,12.33
2019-05-19T13:46:55.214Z,12.73
2019-05-19T13:49:22.005Z,13.73
2019-05-19T13:51:48.462Z,12.87
2019-05-19T13:54:14.986Z,13.83
2019-05-19T13:56:41.408Z,13.23
2019-05-19T13:59:07.788Z,11.83
2019-05-19T14:01:34.406Z,11.50
2019-05-19T14:04:00.906Z,11.10
2019-05-19T14:06:27.260Z,12.23
2019-05-19T14:08:53.629Z,13.00
2019-05-19T14:11:20.146Z,12.17
2019-05-19T14:13:46.651Z,11.90
2019-05-19T14:16:13.119Z,13.40
2019-05-19T14:18:39.709Z,12.10
2019-05-19T14:21:06.205Z,10.67
2019-05-19T14:23:32.721Z,11.67
2019-05-19T14:25:59.015Z,14.30
2019-05-19T14:28:25.528Z,13.33
2019-05-19T14:30:53.062Z,10.73
2019-05-19T14:33:19.413Z,12.60
2019-05-19T14:35:45.689Z,8.87
2019-05-19T14:38:12.048Z,9.60
2019-05-19T14:40:38.430Z,9.33
2019-05-19T14:43:05.017Z,10.67
2019-05-19T14:45:31.810Z,10.10
2019-05-19T14:47:58.303Z,9.03
2019-05-19T14:50:24.771Z,8.80
2019-05-19T14:52:51.228Z,8.43
2019-05-19T14:55:17.703Z,7.60
2019-05-19T14:57:45.548Z,7.67
2019-05-19T15:00:13.854Z,18.90
2019-05-19T15:02:40.339Z,7.73
2019-05-19T15:05:07.199Z,8.07
2019-05-19T15:07:33.848Z,10.00
2019-05-19T15:10:00.221Z,10.30
2019-05-19T15:12:26.623Z,11.73
2019-05-19T15:14:53.047Z,9.93
2019-05-19T15:17:19.524Z,10.03
2019-05-19T15:19:46.079Z,9.47
2019-05-19T15:22:12.581Z,10.27
2019-05-19T15:24:39.111Z,9.27
2019-05-19T15:27:05.517Z,11.40
2019-05-19T15:29:31.874Z,12.37
2019-05-19T15:31:58.393Z,10.27
2019-05-19T15:34:24.814Z,11.57
2019-05-19T15:36:51.287Z,9.13
2019-05-19T15:39:17.752Z,9.17
2019-05-19T15:41:44.293Z,9.47
2019-05-19T15:44:13.151Z,9.83
2019-05-19T15:46:39.734Z,8.37
2019-05-19T15:49:06.272Z,10.70
2019-05-19T15:51:37.471Z,9.73
2019-05-19T15:54:01.120Z,10.70
2019-05-19T15:56:27.527Z,15.27
2019-05-19T15:58:54.089Z,11.17
2019-05-19T16:01:20.467Z,9.37
2019-05-19T16:03:47.102Z,9.90
2019-05-19T16:06:13.782Z,11.47
2019-05-19T16:08:40.283Z,9.00
2019-05-19T16:11:06.803Z,9.67
2019-05-19T16:13:33.297Z,12.47
2019-05-19T16:15:59.576Z,9.73
2019-05-19T16:18:25.945Z,12.00
2019-05-19T16:20:52.548Z,12.07
2019-05-19T16:23:19.051Z,9.70
2019-05-19T16:25:45.334Z,10.83
2019-05-19T16:28:11.859Z,11.63
2019-05-19T16:30:38.173Z,15.33
2019-05-19T16:33:04.639Z,13.07
2019-05-19T16:35:30.931Z,11.97
2019-05-19T16:37:57.561Z,15.67
2019-05-19T16:40:24.217Z,12.80
2019-05-19T16:42:50.512Z,13.93
2019-05-19T16:45:17.156Z,13.53
2019-05-19T16:47:43.643Z,14.57
2019-05-19T16:50:10.546Z,14.83
2019-05-19T16:52:36.912Z,14.37
2019-05-19T16:55:10.141Z,14.53
2019-05-19T16:57:36.744Z,14.60
2019-05-19T17:00:04.403Z,14.03
2019-05-19T17:02:30.859Z,15.97
2019-05-19T17:04:58.414Z,13.03
2019-05-19T17:07:26.125Z,14.37
2019-05-19T17:09:52.641Z,13.63
2019-05-19T17:12:19.090Z,14.57
2019-05-19T17:14:45.399Z,17.50
2019-05-19T17:17:11.807Z,14.37
2019-05-19T17:19:38.068Z,15.20
2019-05-19T17:22:04.582Z,16.53
2019-05-19T17:24:30.933Z,14.43
2019-05-19T17:26:57.299Z,15.07
2019-05-19T17:29:23.830Z,15.57
2019-05-19T17:31:50.102Z,17.13
2019-05-19T17:34:16.612Z,16.57
2019-05-19T17:36:43.207Z,16.07
2019-05-19T17:39:09.706Z,16.07
2019-05-19T17:41:36.087Z,16.70
2019-05-19T17:44:02.590Z,20.23
2019-05-19T17:46:29.115Z,17.80
2019-05-19T17:48:55.488Z,18.97
2019-05-19T17:51:21.883Z,17.50
2019-05-19T17:53:48.496Z,19.80
2019-05-19T17:56:15.489Z,18.40
2019-05-19T17:58:42.086Z,21.67
2019-05-19T18:01:08.582Z,14.00
2019-05-19T18:03:37.088Z,12.87
2019-05-19T18:06:03.578Z,17.27
2019-05-19T18:08:30.049Z,11.80
2019-05-19T18:10:56.674Z,12.83
2019-05-19T18:13:23.241Z,13.10
2019-05-19T18:15:49.621Z,11.80
2019-05-19T18:18:16.003Z,10.67
2019-05-19T18:20:42.498Z,10.40
2019-05-19T18:23:08.882Z,10.37
2019-05-19T18:25:35.435Z,16.03
2019-05-19T18:28:01.817Z,12.50
2019-05-19T18:30:28.413Z,12.30
2019-05-19T18:32:54.707Z,12.97
2019-05-19T18:35:21.113Z,15.03
2019-05-19T18:37:47.739Z,12.13
2019-05-19T18:40:14.408Z,14.63
2019-05-19T18:42:40.747Z,12.23
2019-05-19T18:45:07.719Z,14.00
2019-05-19T18:47:34.232Z,14.13
2019-05-19T18:50:00.737Z,13.47
2019-05-19T18:52:27.207Z,13.30
2019-05-19T18:54:53.676Z,13.63
2019-05-19T18:57:20.005Z,16.97
2019-05-19T18:59:47.825Z,19.20
2019-05-19T19:02:14.489Z,13.20
2019-05-19T19:04:41.013Z,11.63
2019-05-19T19:07:07.337Z,15.57
2019-05-19T19:09:33.974Z,12.30
2019-05-19T19:12:00.340Z,11.33
2019-05-19T19:14:27.730Z,14.27
2019-05-19T19:16:54.157Z,17.83
2019-05-19T19:19:20.696Z,12.60
2019-05-19T19:21:47.092Z,12.63
2019-05-19T19:24:13.548Z,17.83
2019-05-19T19:26:39.804Z,12.57
2019-05-19T19:29:06.206Z,18.70
2019-05-19T19:31:32.637Z,11.17
2019-05-19T19:33:59.011Z,16.47
2019-05-19T19:36:25.472Z,11.47
2019-05-19T19:38:51.844Z,9.70
2019-05-19T19:41:18.381Z,12.87
2019-05-19T19:43:44.779Z,13.00
2019-05-19T19:46:11.254Z,10.57
2019-05-19T19:48:37.647Z,14.27
2019-05-19T19:51:04.105Z,9.97
2019-05-19T19:53:30.627Z,13.17
2019-05-19T19:55:57.104Z,9.97
2019-05-19T19:58:23.721Z,11.20
2019-05-19T20:00:50.133Z,14.73
2019-05-19T20:03:16.592Z,13.47
2019-05-19T20:05:43.197Z,13.23
2019-05-19T20:08:09.706Z,10.90
2019-05-19T20:10:36.440Z,17.43
2019-05-19T20:13:03.551Z,11.53
2019-05-19T20:15:30.026Z,11.10
2019-05-19T20:17:56.429Z,13.80
2019-05-19T20:20:24.227Z,12.40
2019-05-19T20:22:50.783Z,11.50
2019-05-19T20:25:17.547Z,15.77
2019-05-19T20:27:44.066Z,12.43
2019-05-19T20:30:10.717Z,12.00
2019-05-19T20:32:38.265Z,10.33
2019-05-19T20:35:04.837Z,11.17
2019-05-19T20:37:31.320Z,12.83
2019-05-19T20:39:57.781Z,11.90
2019-05-19T20:42:24.238Z,13.10
2019-05-19T20:44:50.624Z,10.30
2019-05-19T20:47:16.947Z,11.03
2019-05-19T20:49:43.362Z,11.13
2019-05-19T20:52:09.609Z,9.20
2019-05-19T20:54:35.984Z,9.50
2019-05-19T20:57:02.264Z,8.70
2019-05-19T20:59:28.658Z,11.17
2019-05-19T21:01:55.015Z,9.90
2019-05-19T21:04:21.401Z,10.03
2019-05-19T21:06:47.766Z,8.37
2019-05-19T21:09:14.123Z,8.83
2019-05-19T21:11:40.498Z,13.83
2019-05-19T21:14:06.982Z,11.27
2019-05-19T21:16:33.473Z,9.83
2019-05-19T21:18:59.889Z,9.03
2019-05-19T21:21:26.274Z,9.10
2019-05-19T21:23:52.535Z,12.27
2019-05-19T21:26:18.794Z,13.13
2019-05-19T21:28:45.186Z,9.37
2019-05-19T21:31:11.517Z,14.23
2019-05-19T21:33:37.843Z,9.53
2019-05-19T21:36:04.286Z,10.70
2019-05-19T21:38:30.813Z,10.60
2019-05-19T21:40:57.353Z,14.70
2019-05-19T21:43:23.923Z,9.70
2019-05-19T21:45:50.277Z,11.20
2019-05-19T21:48:18.686Z,9.90
2019-05-19T21:50:45.059Z,9.90
2019-05-19T21:53:11.516Z,10.93
2019-05-19T21:55:37.925Z,12.47
2019-05-19T21:58:04.281Z,10.83
2019-05-19T22:00:30.644Z,13.40
2019-05-19T22:02:57.115Z,15.60
2019-05-19T22:05:23.476Z,10.80
2019-05-19T22:08:00.648Z,11.00
2019-05-19T22:10:27.264Z,10.00
2019-05-19T22:12:53.730Z,10.17
2019-05-19T22:15:20.208Z,9.67
2019-05-19T22:17:46.470Z,13.27
2019-05-19T22:20:13.083Z,10.67
2019-05-19T22:22:39.419Z,17.63
2019-05-19T22:25:05.893Z,10.13
2019-05-19T22:27:32.171Z,10.40
2019-05-19T22:29:58.514Z,9.23
2019-05-19T22:32:24.838Z,10.60
2019-05-19T22:34:51.194Z,10.53
2019-05-19T22:37:17.561Z,16.27
2019-05-19T22:39:43.925Z,10.37
2019-05-19T22:42:10.420Z,9.40
2019-05-19T22:44:36.829Z,11.50
2019-05-19T22:47:03.285Z,12.60
2019-05-19T22:49:29.671Z,9.20
2019-05-19T22:51:56.108Z,9.93
2019-05-19T22:54:22.515Z,16.50
2019-05-19T22:56:48.917Z,11.13
2019-05-19T22:59:19.669Z,11.13
2019-05-19T23:01:51.340Z,10.27
2019-05-19T23:04:11.844Z,10.37
2019-05-19T23:06:38.223Z,10.00
2019-05-19T23:09:05.182Z,11.53
2019-05-19T23:11:31.546Z,11.80
2019-05-19T23:13:57.903Z,10.57
2019-05-19T23:16:24.386Z,9.80
2019-05-19T23:18:50.768Z,13.60
2019-05-19T23:21:17.153Z,9.80
2019-05-19T23:23:43.555Z,11.10
2019-05-19T23:26:10.010Z,10.77
2019-05-19T23:28:36.422Z,15.50
2019-05-19T23:31:03.005Z,10.13
2019-05-19T23:33:29.385Z,13.93
2019-05-19T23:35:55.749Z,14.80
2019-05-19T23:38:22.149Z,13.10
2019-05-19T23:40:48.502Z,9.77
2019-05-19T23:43:15.037Z,12.97
2019-05-19T23:45:41.281Z,12.17
2019-05-19T23:48:07.664Z,9.13
2019-05-19T23:50:33.926Z,9.23
2019-05-19T23:53:00.229Z,11.17
2019-05-19T23:55:26.555Z,8.97
2019-05-19T23:57:52.959Z,10.87
